Time;durP1;ratioP1;P1;durP2;ratioP2;P2;SDS_P1;SDS_P2;PMS_P1;PMS_P2;Temp;Humidity;BMP_temperature;BMP_pressure;BME280_temperature;BME280_humidity;BME280_pressure;Samples;Min_cycle;Max_cycle;Signal;HPM_P1;HPM_P2
2024/01/01 00:01:43;;;;;;;6.20;3.47;;;;;;;7.45;100.00;99737.16;5096040;27;97971;-27
2024/01/01 00:04:09;;;;;;;7.07;3.63;;;;;;;7.47;100.00;99736.22;5077039;27;100958;-27
2024/01/01 00:06:34;;;;;;;5.82;4.10;;;;;;;7.40;100.00;99738.44;5076676;27;97195;-27
2024/01/01 00:09:00;;;;;;;3.17;2.25;;;;;;;7.35;100.00;99740.56;5098179;27;96807;-27
2024/01/01 00:11:25;;;;;;;7.53;2.95;;;;;;;7.37;100.00;99733.25;5096816;27;97909;-29
2024/01/01 00:13:50;;;;;;;5.03;3.10;;;;;;;7.30;100.00;99729.25;5097433;27;97242;-28
2024/01/01 00:16:16;;;;;;;7.78;2.80;;;;;;;7.33;100.00;99737.97;5080084;27;96719;-26
2024/01/01 00:18:41;;;;;;;2.00;1.73;;;;;;;7.33;100.00;99734.41;5098471;27;96778;-27
2024/01/01 00:21:10;;;;;;;7.20;3.35;;;;;;;7.35;100.00;99741.44;5098073;27;99426;-27
2024/01/01 00:23:36;;;;;;;8.75;2.60;;;;;;;7.33;100.00;99732.59;5079707;27;101030;-27
2024/01/01 00:26:02;;;;;;;8.45;2.20;;;;;;;7.30;100.00;99727.41;5098573;27;96723;-28
2024/01/01 00:28:27;;;;;;;2.50;1.85;;;;;;;7.20;100.00;99713.69;5098374;27;96731;-26
2024/01/01 00:30:52;;;;;;;3.40;2.00;;;;;;;7.26;100.00;99743.88;5096168;27;97363;-32
2024/01/01 00:33:18;;;;;;;3.72;2.42;;;;;;;7.20;100.00;99751.41;5095200;27;99137;-27
2024/01/01 00:35:44;;;;;;;2.03;1.52;;;;;;;7.20;100.00;99742.47;5095509;27;97002;-33
2024/01/01 00:38:10;;;;;;;3.53;2.35;;;;;;;7.22;100.00;99757.56;5076947;27;96976;-31
2024/01/01 00:40:36;;;;;;;3.80;2.22;;;;;;;7.15;100.00;99740.06;5094943;27;97805;-28
2024/01/01 00:43:02;;;;;;;1.65;0.95;;;;;;;7.14;100.00;99738.31;5076495;27;101063;-28
2024/01/01 00:45:27;;;;;;;8.73;2.20;;;;;;;7.17;100.00;99745.31;5096211;27;97046;-27
2024/01/01 00:47:53;;;;;;;2.53;1.38;;;;;;;7.12;100.00;99734.00;5098610;27;96804;-27
2024/01/01 00:50:19;;;;;;;2.33;0.98;;;;;;;7.13;100.00;99735.75;5097429;27;99300;-27
2024/01/01 00:52:44;;;;;;;1.40;1.15;;;;;;;7.10;100.00;99717.06;5097573;27;97302;-27
2024/01/01 00:55:09;;;;;;;1.17;0.60;;;;;;;7.04;100.00;99728.25;5096785;27;96620;-27
2024/01/01 00:57:35;;;;;;;4.32;1.83;;;;;;;7.08;100.00;99719.88;5098043;27;96638;-26
2024/01/01 01:00:00;;;;;;;1.77;1.10;;;;;;;7.06;100.00;99735.28;5096660;27;97294;-28
2024/01/01 01:02:25;;;;;;;1.08;0.82;;;;;;;7.10;100.00;99734.09;5097053;27;97222;-27
2024/01/01 01:04:51;;;;;;;1.50;0.93;;;;;;;7.06;100.00;99729.88;5097667;27;96686;-27
2024/01/01 01:07:16;;;;;;;1.58;1.15;;;;;;;7.09;100.00;99740.44;5097535;27;96765;-27
2024/01/01 01:09:42;;;;;;;1.73;1.15;;;;;;;7.15;100.00;99742.75;5096757;27;98876;-28
2024/01/01 01:12:07;;;;;;;2.70;1.33;;;;;;;7.10;100.00;99744.00;5097598;27;97770;-28
2024/01/01 01:14:32;;;;;;;1.45;1.00;;;;;;;7.09;100.00;99747.66;5097584;27;96658;-28
2024/01/01 01:16:58;;;;;;;1.27;0.88;;;;;;;7.08;100.00;99752.19;5097678;27;96685;-28
2024/01/01 01:19:23;;;;;;;4.40;2.05;;;;;;;7.10;100.00;99761.00;5096406;27;99252;-27
2024/01/01 01:21:48;;;;;;;5.38;1.77;;;;;;;7.12;100.00;99766.31;5097025;27;103167;-27
2024/01/01 01:24:15;;;;;;;7.15;1.63;;;;;;;7.08;100.00;99754.00;5097156;27;96683;-27
2024/01/01 01:26:41;;;;;;;4.85;2.33;;;;;;;7.11;100.00;99765.44;5078817;27;96754;-27
2024/01/01 01:29:07;;;;;;;3.42;2.03;;;;;;;7.07;100.00;99766.59;5078142;27;101605;-27
2024/01/01 01:31:32;;;;;;;6.15;2.05;;;;;;;7.06;100.00;99766.72;5096726;27;99534;-27
2024/01/01 01:33:58;;;;;;;3.17;1.10;;;;;;;7.09;100.00;99782.69;5097636;27;96502;-26
2024/01/01 01:36:23;;;;;;;3.55;1.25;;;;;;;7.07;100.00;99779.22;5097567;27;96765;-27
2024/01/01 01:38:48;;;;;;;5.30;0.85;;;;;;;7.02;100.00;99766.03;5096634;27;97984;-27
2024/01/01 01:41:13;;;;;;;1.92;1.13;;;;;;;7.01;100.00;99786.72;5096755;27;97954;-28
2024/01/01 01:43:39;;;;;;;1.10;0.55;;;;;;;6.98;100.00;99775.28;5096460;27;96436;-27
2024/01/01 01:46:05;;;;;;;0.30;0.30;;;;;;;6.98;100.00;99786.03;5096920;27;96759;-26
2024/01/01 01:48:31;;;;;;;0.52;0.50;;;;;;;6.97;100.00;99803.16;5096753;27;98420;-26
2024/01/01 01:50:56;;;;;;;1.13;0.52;;;;;;;6.99;100.00;99801.25;5077657;27;101096;-27
2024/01/01 01:53:25;;;;;;;0.20;0.20;;;;;;;6.95;100.00;99802.41;5096890;27;96514;-26
2024/01/01 01:55:54;;;;;;;0.40;0.13;;;;;;;7.01;100.00;99815.47;5078123;27;96837;-27
2024/01/01 01:58:21;;;;;;;3.15;0.60;;;;;;;7.00;100.00;99794.88;5095910;27;99231;-26
2024/01/01 02:00:47;;;;;;;3.65;0.68;;;;;;;6.96;100.00;99787.97;5078259;27;101667;-27
2024/01/01 02:03:14;;;;;;;0.50;0.28;;;;;;;6.95;100.00;99786.25;5078372;27;96916;-27
2024/01/01 02:05:40;;;;;;;1.15;0.80;;;;;;;6.97;100.00;99803.16;5096777;27;96734;-27
2024/01/01 02:08:07;;;;;;;0.43;0.35;;;;;;;7.02;100.00;99799.22;5095901;27;97833;-27
2024/01/01 02:10:32;;;;;;;0.88;0.43;;;;;;;6.99;100.00;99809.31;5077663;27;101081;-27
2024/01/01 02:12:59;;;;;;;0.60;0.43;;;;;;;6.97;100.00;99787.00;5096722;27;96930;-26
2024/01/01 02:15:24;;;;;;;0.90;0.52;;;;;;;7.00;100.00;99802.97;5077945;27;96807;-26
2024/01/01 02:17:50;;;;;;;0.75;0.50;;;;;;;6.97;100.00;99795.94;5096128;27;99228;-27
2024/01/01 02:20:15;;;;;;;1.85;0.90;;;;;;;6.95;100.00;99802.41;5096289;27;97460;-26
2024/01/01 02:22:41;;;;;;;1.40;0.50;;;;;;;6.96;100.00;99810.38;5095976;27;96631;-27
2024/01/01 02:25:08;;;;;;;0.28;0.17;;;;;;;7.04;100.00;99801.81;5096828;27;96732;-27
2024/01/01 02:27:36;;;;;;;1.20;0.20;;;;;;;7.04;100.00;99800.97;5095918;27;99610;-28
2024/01/01 02:30:02;;;;;;;0.77;0.63;;;;;;;7.06;100.00;99807.97;5077404;27;101463;-27
2024/01/01 02:32:27;;;;;;;0.47;0.30;;;;;;;7.08;100.00;99805.16;5077106;27;96553;-27
2024/01/01 02:34:53;;;;;;;0.40;0.28;;;;;;;7.10;100.00;99808.63;5096383;27;96937;-28
2024/01/01 02:37:18;;;;;;;1.00;0.55;;;;;;;7.03;100.00;99800.06;5095658;27;99419;-27
2024/01/01 02:39:43;;;;;;;7.97;0.80;;;;;;;7.03;100.00;99792.00;5095893;27;97810;-27
2024/01/01 02:42:09;;;;;;;4.82;1.25;;;;;;;6.99;100.00;99785.94;5096278;27;96529;-26
2024/01/01 02:44:34;;;;;;;3.80;0.70;;;;;;;7.06;100.00;99793.66;5096468;27;96758;-26
2024/01/01 02:46:59;;;;;;;2.88;1.17;;;;;;;7.13;100.00;99806.63;5096028;27;98243;-28
2024/01/01 02:49:25;;;;;;;1.33;0.90;;;;;;;7.12;100.00;99802.19;5096269;27;98450;-27
2024/01/01 02:51:50;;;;;;;3.28;0.75;;;;;;;7.15;100.00;99809.19;5095886;27;96612;-27
2024/01/01 02:54:16;;;;;;;1.23;0.60;;;;;;;7.08;100.00;99783.63;5096153;27;96762;-27
2024/01/01 02:56:41;;;;;;;0.17;0.10;;;;;;;7.13;100.00;99803.06;5095268;27;97891;-27
2024/01/01 02:59:07;;;;;;;3.20;0.55;;;;;;;7.17;100.00;99821.59;5095235;27;98217;-27
2024/01/01 03:01:32;;;;;;;0.73;0.55;;;;;;;7.13;100.00;99801.22;5077305;27;96487;-27
2024/01/01 03:03:58;;;;;;;2.47;0.90;;;;;;;7.17;100.00;99808.13;5095833;27;96793;-27
2024/01/01 03:06:23;;;;;;;0.70;0.43;;;;;;;7.17;100.00;99808.13;5095660;27;98442;-27
2024/01/01 03:08:48;;;;;;;0.98;0.70;;;;;;;7.19;100.00;99825.06;5095949;27;97199;-27
2024/01/01 03:11:14;;;;;;;2.85;0.68;;;;;;;7.18;100.00;99811.72;5095753;27;96556;-27
2024/01/01 03:13:40;;;;;;;0.73;0.43;;;;;;;7.14;100.00;99808.34;5096405;27;96754;-27
2024/01/01 03:16:07;;;;;;;1.38;0.57;;;;;;;7.20;100.00;99815.16;5095417;27;99616;-27
2024/01/01 03:18:32;;;;;;;0.90;0.52;;;;;;;7.22;100.00;99815.91;5076762;27;101206;-28
2024/01/01 03:20:58;;;;;;;4.90;0.70;;;;;;;7.19;100.00;99821.50;5095150;27;96621;-27
2024/01/01 03:23:23;;;;;;;1.58;0.65;;;;;;;7.22;100.00;99811.41;5095912;27;96744;-27
2024/01/01 03:25:49;;;;;;;3.40;0.98;;;;;;;7.22;100.00;99805.13;5098583;27;99333;-27
2024/01/01 03:28:14;;;;;;;0.32;0.32;;;;;;;7.27;100.00;99812.91;5098776;27;99528;-26
2024/01/01 03:30:39;;;;;;;3.22;0.32;;;;;;;7.29;100.00;99816.38;5099688;27;96525;-27
2024/01/01 03:33:05;;;;;;;4.47;0.80;;;;;;;7.28;100.00;99822.75;5099195;27;96890;-27
2024/01/01 03:35:31;;;;;;;0.88;0.73;;;;;;;7.30;100.00;99819.00;5098636;27;97740;-27
2024/01/01 03:37:57;;;;;;;5.30;0.75;;;;;;;7.28;100.00;99818.22;5098931;27;99179;-26
2024/01/01 03:40:23;;;;;;;0.93;0.22;;;;;;;7.31;100.00;99841.41;5080185;27;96472;-27
2024/01/01 03:42:48;;;;;;;6.30;0.63;;;;;;;7.31;100.00;99839.56;5099050;27;96831;-27
2024/01/01 03:45:14;;;;;;;1.13;0.43;;;;;;;7.34;100.00;99846.56;5098342;27;98024;-28
2024/01/01 03:47:39;;;;;;;0.45;0.25;;;;;;;7.32;100.00;99840.44;5098498;27;99383;-26
2024/01/01 03:50:06;;;;;;;2.05;0.17;;;;;;;7.34;100.00;99855.56;5098960;27;96581;-27
2024/01/01 03:52:32;;;;;;;1.55;0.52;;;;;;;7.33;100.00;99848.41;5080131;27;96912;-27
2024/01/01 03:54:57;;;;;;;0.50;0.28;;;;;;;7.35;100.00;99849.19;5098411;27;97917;-27
2024/01/01 03:57:23;;;;;;;2.88;0.22;;;;;;;7.33;100.00;99851.09;5098311;27;98985;-27
2024/01/01 03:59:49;;;;;;;1.77;0.57;;;;;;;7.35;100.00;99851.88;5098356;27;96779;-27
2024/01/01 04:02:14;;;;;;;1.67;0.73;;;;;;;7.31;100.00;99844.94;5099243;27;96775;-26
2024/01/01 04:04:45;;;;;;;3.03;0.85;;;;;;;7.28;100.00;99841.59;5079337;27;101326;-27
2024/01/01 04:07:11;;;;;;;0.20;0.10;;;;;;;7.33;100.00;99856.50;5079697;27;100908;-27
2024/01/01 04:09:36;;;;;;;0.60;0.15;;;;;;;7.27;100.00;99847.94;5098302;27;96637;-26
2024/01/01 04:12:02;;;;;;;0.77;0.32;;;;;;;7.31;100.00;99865.63;5098468;27;96731;-26
2024/01/01 04:14:27;;;;;;;0.68;0.35;;;;;;;7.31;100.00;99881.81;5098021;27;99430;-28
2024/01/01 04:16:53;;;;;;;5.50;0.20;;;;;;;7.28;100.00;99872.09;5098644;27;97362;-27
2024/01/01 04:19:18;;;;;;;3.40;0.90;;;;;;;7.27;100.00;99874.88;5097917;27;96695;-27
2024/01/01 04:21:43;;;;;;;1.45;0.73;;;;;;;7.29;100.00;99871.13;5098272;27;96787;-29
2024/01/01 04:24:09;;;;;;;0.47;0.47;;;;;;;7.30;100.00;99874.69;5098234;27;97560;-27
2024/01/01 04:26:37;;;;;;;0.25;0.25;;;;;;;7.30;100.00;99877.38;5098168;27;98949;-27
2024/01/01 04:29:03;;;;;;;0.30;0.20;;;;;;;7.22;100.00;99867.97;5079808;27;96579;-27
2024/01/01 04:31:28;;;;;;;0.47;0.20;;;;;;;7.29;100.00;99881.88;5098557;27;96730;-26
2024/01/01 04:33:54;;;;;;;2.08;0.85;;;;;;;7.22;100.00;99883.25;5097011;27;99631;-27
2024/01/01 04:36:20;;;;;;;2.63;0.50;;;;;;;7.29;100.00;99892.66;5097515;27;99840;-27
2024/01/01 04:38:46;;;;;;;0.93;0.52;;;;;;;7.28;100.00;99885.56;5098305;27;96740;-27
2024/01/01 04:41:11;;;;;;;5.80;0.68;;;;;;;7.31;100.00;99896.13;5098072;27;96769;-27
2024/01/01 04:43:38;;;;;;;0.30;0.25;;;;;;;7.27;100.00;99883.84;5098060;27;97399;-27
2024/01/01 04:46:04;;;;;;;1.60;0.50;;;;;;;7.27;100.00;99891.91;5097506;27;99322;-27
2024/01/01 04:48:30;;;;;;;6.40;0.30;;;;;;;7.29;100.00;99897.19;5097726;27;96680;-27
2024/01/01 04:50:55;;;;;;;0.55;0.10;;;;;;;7.32;100.00;99900.56;5098109;27;96760;-27
2024/01/01 04:53:20;;;;;;;1.52;0.65;;;;;;;7.31;100.00;99903.34;5097538;27;99293;-28
2024/01/01 04:55:46;;;;;;;6.10;0.50;;;;;;;7.27;100.00;99893.72;5097280;27;98749;-26
2024/01/01 04:58:11;;;;;;;2.17;0.20;;;;;;;7.30;100.00;99902.50;5096881;27;96739;-27
2024/01/01 05:00:36;;;;;;;5.68;0.93;;;;;;;7.26;100.00;99895.56;5097990;27;96499;-27
2024/01/01 05:03:02;;;;;;;1.90;0.40;;;;;;;7.33;100.00;99912.19;5097286;27;97360;-29
2024/01/01 05:05:27;;;;;;;1.02;0.65;;;;;;;7.28;100.00;99903.56;5078734;27;100975;-27
2024/01/01 05:07:53;;;;;;;1.17;0.15;;;;;;;7.33;100.00;99921.16;5097596;27;96776;-27
2024/01/01 05:10:18;;;;;;;1.13;0.30;;;;;;;7.33;100.00;99913.06;5097524;27;96792;-27
2024/01/01 05:12:44;;;;;;;0.70;0.25;;;;;;;7.31;100.00;99919.50;5078611;27;100651;-26
2024/01/01 05:15:11;;;;;;;0.10;0.10;;;;;;;7.29;100.00;99911.53;5078861;27;98242;-27
2024/01/01 05:17:37;;;;;;;2.70;0.52;;;;;;;7.33;100.00;99928.38;5096994;27;96740;-28
2024/01/01 05:20:03;;;;;;;1.15;0.43;;;;;;;7.34;100.00;99928.28;5097654;27;96735;-27
2024/01/01 05:22:29;;;;;;;10.35;0.82;;;;;;;7.30;100.00;99917.78;5078095;27;101405;-28
2024/01/01 05:24:55;;;;;;;1.27;0.60;;;;;;;7.33;100.00;99937.31;5078336;27;100888;-27
2024/01/01 05:27:21;;;;;;;1.98;0.60;;;;;;;7.30;100.00;99929.44;5097599;27;96611;-27
2024/01/01 05:29:46;;;;;;;0.22;0.05;;;;;;;7.30;100.00;99932.13;5097383;27;96779;-27
2024/01/01 05:32:11;;;;;;;0.20;0.20;;;;;;;7.33;100.00;99937.31;5096443;27;98903;-29
2024/01/01 05:34:37;;;;;;;0.05;0.05;;;;;;;7.27;100.00;99939.50;5096724;27;98639;-27
2024/01/01 05:37:02;;;;;;;0.40;0.25;;;;;;;7.26;100.00;99935.09;5097458;27;96663;-28
2024/01/01 05:39:27;;;;;;;0.25;0.15;;;;;;;7.28;100.00;99939.44;5097490;27;96771;-27
2024/01/01 05:41:53;;;;;;;6.00;0.43;;;;;;;7.20;100.00;99936.38;5096607;27;97423;-26
2024/01/01 05:44:18;;;;;;;0.55;0.22;;;;;;;7.29;100.00;99954.63;5096744;27;97828;-27
2024/01/01 05:46:43;;;;;;;1.42;0.20;;;;;;;7.26;100.00;99953.97;5096058;27;96616;-27
2024/01/01 05:49:09;;;;;;;0.00;0.00;;;;;;;7.27;100.00;99953.88;5096873;27;96803;-27
2024/01/01 05:51:34;;;;;;;0.22;0.15;;;;;;;7.28;100.00;99965.50;5096725;27;97387;-28
2024/01/01 05:53:59;;;;;;;2.72;0.50;;;;;;;7.31;100.00;99978.78;5096717;27;97857;-26
2024/01/01 05:56:25;;;;;;;0.32;0.25;;;;;;;7.23;100.00;99963.97;5096690;27;96504;-26
2024/01/01 05:58:50;;;;;;;1.95;0.35;;;;;;;7.26;100.00;99979.06;5096704;27;96751;-27
2024/01/01 06:01:16;;;;;;;1.35;0.43;;;;;;;7.31;100.00;99986.84;5096538;27;97809;-27
2024/01/01 06:03:42;;;;;;;1.35;0.65;;;;;;;7.23;100.00;99980.13;5096901;27;97783;-27
2024/01/01 06:06:10;;;;;;;7.60;0.93;;;;;;;7.24;100.00;99980.97;5096681;27;96540;-27
2024/01/01 06:08:36;;;;;;;1.13;0.57;;;;;;;7.22;100.00;99993.66;5096841;27;96704;-27
2024/01/01 06:11:01;;;;;;;0.52;0.30;;;;;;;7.26;100.00;100030.22;5096105;27;97449;-27
2024/01/01 06:13:27;;;;;;;0.73;0.47;;;;;;;7.27;100.00;100007.75;5077683;27;101430;-28
2024/01/01 06:15:52;;;;;;;0.08;0.05;;;;;;;7.29;100.00;100003.09;5096725;27;96517;-27
2024/01/01 06:18:19;;;;;;;2.88;0.47;;;;;;;7.32;100.00;100013.72;5096329;27;96844;-26
2024/01/01 06:20:45;;;;;;;4.60;1.05;;;;;;;7.26;100.00;100010.53;5077593;27;101461;-27
2024/01/01 06:23:10;;;;;;;1.33;0.38;;;;;;;7.30;100.00;100026.41;5077584;27;101019;-27
2024/01/01 06:25:36;;;;;;;0.45;0.40;;;;;;;7.30;100.00;100034.47;5096270;27;96532;-27
2024/01/01 06:28:01;;;;;;;5.32;0.25;;;;;;;7.22;100.00;100018.78;5096905;27;96800;-26
2024/01/01 06:30:26;;;;;;;0.20;0.20;;;;;;;7.29;100.00;100037.25;5096066;27;97200;-28
2024/01/01 06:32:52;;;;;;;0.95;0.10;;;;;;;7.31;100.00;100048.81;5095898;27;99165;-26
2024/01/01 06:35:17;;;;;;;0.50;0.20;;;;;;;7.31;100.00;100046.13;5095900;27;96627;-27
2024/01/01 06:37:42;;;;;;;0.15;0.15;;;;;;;7.31;100.00;100041.59;5096343;27;96830;-27
2024/01/01 06:40:09;;;;;;;3.88;1.02;;;;;;;7.23;100.00;100027.75;5095778;27;97930;-27
2024/01/01 06:42:34;;;;;;;2.70;0.55;;;;;;;7.21;100.00;100043.97;5077176;27;102335;-27
2024/01/01 06:45:07;;;;;;;2.35;0.32;;;;;;;7.30;100.00;100056.03;5096102;27;96487;-27
2024/01/01 06:47:33;;;;;;;1.10;0.43;;;;;;;7.25;100.00;100063.53;5077500;27;96873;-27
2024/01/01 06:49:58;;;;;;;1.63;0.38;;;;;;;7.31;100.00;100073.91;5095970;27;97936;-27
2024/01/01 06:52:24;;;;;;;0.10;0.05;;;;;;;7.30;100.00;100082.97;5095822;27;98267;-27
2024/01/01 06:54:49;;;;;;;0.45;0.10;;;;;;;7.30;100.00;100076.72;5096180;27;97140;-26
2024/01/01 06:57:14;;;;;;;0.28;0.17;;;;;;;7.32;100.00;100085.59;5096260;27;96740;-26
2024/01/01 06:59:40;;;;;;;0.55;0.28;;;;;;;7.28;100.00;100084.88;5096429;27;99313;-28
2024/01/01 07:02:06;;;;;;;0.22;0.13;;;;;;;7.34;100.00;100097.09;5099488;27;97850;-28
2024/01/01 07:04:31;;;;;;;1.25;0.20;;;;;;;7.30;100.00;100099.13;5081141;27;96864;-26
2024/01/01 07:06:57;;;;;;;0.10;0.10;;;;;;;7.33;100.00;100108.84;5099790;27;96822;-26
2024/01/01 07:09:22;;;;;;;0.55;0.22;;;;;;;7.32;100.00;100109.81;5099423;27;97416;-27
2024/01/01 07:11:48;;;;;;;0.43;0.10;;;;;;;7.31;100.00;100102.69;5099362;27;97800;-27
2024/01/01 07:14:13;;;;;;;0.38;0.20;;;;;;;7.30;100.00;100107.22;5099380;27;96555;-27
2024/01/01 07:16:39;;;;;;;1.80;0.70;;;;;;;7.35;100.00;100123.97;5099939;27;96739;-27
2024/01/01 07:19:05;;;;;;;3.13;0.22;;;;;;;7.34;100.00;100124.94;5098907;27;99228;-27
2024/01/01 07:21:31;;;;;;;5.68;0.93;;;;;;;7.36;100.00;100131.06;5099214;27;97306;-27
2024/01/01 07:23:57;;;;;;;1.55;0.10;;;;;;;7.39;100.00;100144.38;5098719;27;96635;-27
2024/01/01 07:26:22;;;;;;;2.50;0.40;;;;;;;7.40;100.00;100153.31;5099456;27;96952;-27
2024/01/01 07:28:47;;;;;;;0.15;0.08;;;;;;;7.38;100.00;100168.72;5098985;27;97449;-29
2024/01/01 07:31:13;;;;;;;1.17;0.30;;;;;;;7.43;100.00;100172.00;5098773;27;98814;-28
2024/01/01 07:33:38;;;;;;;0.25;0.13;;;;;;;7.41;100.00;100173.91;5099057;27;96496;-27
2024/01/01 07:36:10;;;;;;;0.00;0.00;;;;;;;7.36;100.00;100171.47;5099121;27;96825;-28
2024/01/01 07:38:35;;;;;;;0.30;0.25;;;;;;;7.37;100.00;100172.38;5098635;27;99608;-27
2024/01/01 07:41:01;;;;;;;0.10;0.10;;;;;;;7.37;100.00;100177.75;5098651;27;97852;-27
2024/01/01 07:43:26;;;;;;;0.22;0.08;;;;;;;7.34;100.00;100178.81;5098576;27;96664;-27
2024/01/01 07:45:51;;;;;;;0.28;0.20;;;;;;;7.36;100.00;100178.72;5099179;27;96885;-27
2024/01/01 07:48:17;;;;;;;0.35;0.20;;;;;;;7.36;100.00;100178.72;5098340;27;97578;-27
2024/01/01 07:50:42;;;;;;;1.38;0.28;;;;;;;7.35;100.00;100179.69;5079843;27;99098;-27
2024/01/01 07:53:07;;;;;;;0.20;0.10;;;;;;;7.33;100.00;100187.84;5098736;27;96493;-27
2024/01/01 07:55:33;;;;;;;1.52;0.28;;;;;;;7.37;100.00;100188.53;5098993;27;96815;-26
2024/01/01 07:57:58;;;;;;;1.23;0.38;;;;;;;7.33;100.00;100185.16;5079702;27;98849;-27
2024/01/01 08:00:24;;;;;;;1.45;0.28;;;;;;;7.34;100.00;100194.09;5097238;27;97268;-27
2024/01/01 08:02:50;;;;;;;0.03;0.00;;;;;;;7.36;100.00;100192.19;5097711;27;96595;-28
2024/01/01 08:05:15;;;;;;;0.00;0.00;;;;;;;7.38;100.00;100201.03;5098107;27;96788;-27
2024/01/01 08:07:41;;;;;;;0.10;0.10;;;;;;;7.37;100.00;100204.72;5097616;27;97352;-27
2024/01/01 08:10:06;;;;;;;0.38;0.32;;;;;;;7.38;100.00;100211.81;5097018;27;97788;-26
2024/01/01 08:12:32;;;;;;;4.22;0.28;;;;;;;7.38;100.00;100203.75;5096779;27;96637;-28
2024/01/01 08:14:57;;;;;;;0.00;0.00;;;;;;;7.35;100.00;100218.25;5097506;27;96852;-27
2024/01/01 08:17:23;;;;;;;0.63;0.30;;;;;;;7.36;100.00;100224.50;5096816;27;99744;-27
2024/01/01 08:19:48;;;;;;;0.52;0.50;;;;;;;7.34;100.00;100219.22;5096790;27;99417;-27
2024/01/01 08:22:13;;;;;;;0.80;0.10;;;;;;;7.31;100.00;100232.00;5078768;27;96490;-27
2024/01/01 08:24:39;;;;;;;0.30;0.10;;;;;;;7.30;100.00;100230.28;5097402;27;96768;-28
2024/01/01 08:27:06;;;;;;;0.03;0.03;;;;;;;7.32;100.00;100242.69;5096511;27;99058;-27
2024/01/01 08:29:32;;;;;;;7.47;0.65;;;;;;;7.30;100.00;100241.03;5078493;27;98984;-28
2024/01/01 08:31:57;;;;;;;0.15;0.10;;;;;;;7.27;100.00;100246.59;5078425;27;96591;-27
2024/01/01 08:34:22;;;;;;;1.13;0.15;;;;;;;7.30;100.00;100247.28;5097021;27;96698;-27
2024/01/01 08:36:48;;;;;;;0.73;0.40;;;;;;;7.27;100.00;100241.19;5096583;27;97343;-27
2024/01/01 08:39:13;;;;;;;0.73;0.25;;;;;;;7.35;100.00;100247.88;5096670;27;97355;-26
2024/01/01 08:41:43;;;;;;;4.40;0.20;;;;;;;7.39;100.00;100275.53;5096624;27;96478;-27
2024/01/01 08:44:08;;;;;;;2.40;0.82;;;;;;;7.34;100.00;100269.53;5096907;27;96527;-28
2024/01/01 08:46:34;;;;;;;0.22;0.08;;;;;;;7.38;100.00;100271.09;5096494;27;97831;-27
2024/01/01 08:48:59;;;;;;;0.00;0.00;;;;;;;7.36;100.00;100267.63;5096300;27;99212;-27
2024/01/01 08:51:24;;;;;;;0.98;0.40;;;;;;;7.36;100.00;100281.09;5096904;27;96927;-27
2024/01/01 08:53:50;;;;;;;0.00;0.00;;;;;;;7.36;100.00;100275.69;5097221;27;96808;-27
2024/01/01 08:56:15;;;;;;;0.35;0.20;;;;;;;7.41;100.00;100271.78;5095931;27;98494;-27
2024/01/01 08:58:40;;;;;;;0.00;0.00;;;;;;;7.43;100.00;100286.03;5054260;27;1174828;-27
2024/01/01 09:01:06;;;;;;;0.32;0.17;;;;;;;7.45;100.00;100292.19;5097416;27;96504;-27
2024/01/01 09:03:31;;;;;;;0.98;0.35;;;;;;;7.44;100.00;100300.38;5097908;27;96735;-27
2024/01/01 09:05:58;;;;;;;2.42;0.05;;;;;;;7.45;100.00;100302.13;5097376;27;98478;-28
2024/01/01 09:08:24;;;;;;;0.45;0.17;;;;;;;7.43;100.00;100290.56;5097046;27;99582;-27
2024/01/01 09:10:49;;;;;;;0.00;0.00;;;;;;;7.45;100.00;100296.72;5078990;27;96717;-27
2024/01/01 09:13:15;;;;;;;0.22;0.22;;;;;;;7.49;100.00;100298.28;5097634;27;96857;-27
2024/01/01 09:15:40;;;;;;;5.78;0.30;;;;;;;7.47;100.00;100305.59;5097011;27;100019;-28
2024/01/01 09:18:07;;;;;;;0.00;0.00;;;;;;;7.52;100.00;100316.97;5097443;27;99275;-27
2024/01/01 09:20:33;;;;;;;1.65;0.40;;;;;;;7.55;100.00;100326.69;5097241;27;96513;-27
2024/01/01 09:22:59;;;;;;;2.20;0.35;;;;;;;7.53;100.00;100310.66;5096381;27;96892;-28
2024/01/01 09:25:24;;;;;;;1.08;0.52;;;;;;;7.58;100.00;100307.66;5096588;27;98210;-27
2024/01/01 09:27:50;;;;;;;1.23;0.43;;;;;;;7.57;100.00;100314.00;5097053;27;98299;-27
2024/01/01 09:30:16;;;;;;;0.10;0.10;;;;;;;7.58;100.00;100327.41;5097197;27;96507;-27
2024/01/01 09:32:41;;;;;;;0.25;0.15;;;;;;;7.64;100.00;100336.97;5097131;27;96863;-27
2024/01/01 09:35:08;;;;;;;0.15;0.05;;;;;;;7.64;100.00;100327.03;5096830;27;104028;-27
2024/01/01 09:37:33;;;;;;;0.17;0.10;;;;;;;7.70;100.00;100335.72;5097165;27;97295;-27
2024/01/01 09:39:59;;;;;;;0.08;0.08;;;;;;;7.73;100.00;100325.66;5096938;27;96473;-27
2024/01/01 09:42:25;;;;;;;0.47;0.25;;;;;;;7.80;100.00;100347.75;5097491;27;96863;-27
2024/01/01 09:44:52;;;;;;;1.02;0.40;;;;;;;7.83;100.00;100347.53;5078002;27;101545;-27
2024/01/01 09:47:17;;;;;;;1.08;0.38;;;;;;;7.86;100.00;100341.97;5078135;27;101022;-27
2024/01/01 09:49:43;;;;;;;2.75;0.15;;;;;;;7.91;100.00;100360.56;5096707;27;96430;-27
2024/01/01 09:52:12;;;;;;;0.25;0.20;;;;;;;7.92;100.00;100355.09;5096576;27;96843;-27
2024/01/01 09:54:37;;;;;;;0.40;0.20;;;;;;;7.99;100.00;100347.53;5077684;27;100855;-27
2024/01/01 09:57:03;;;;;;;0.65;0.22;;;;;;;8.08;100.00;100355.09;5096623;27;97777;-27
2024/01/01 09:59:39;;;;;;;1.85;0.22;;;;;;;8.14;100.00;100368.19;5077470;27;96603;-27
2024/01/01 10:02:06;;;;;;;1.83;0.10;;;;;;;8.17;100.00;100373.38;5096839;27;96652;-27
2024/01/01 10:04:32;;;;;;;0.60;0.15;;;;;;;8.17;100.00;100381.47;5077886;27;100913;-27
2024/01/01 10:07:01;;;;;;;3.47;0.65;;;;;;;8.13;100.00;100379.06;5078092;27;100937;-27
2024/01/01 10:09:27;;;;;;;0.60;0.17;;;;;;;8.16;100.00;100395.94;5077934;27;96608;-26
2024/01/01 10:12:06;;;;;;;0.10;0.10;;;;;;;8.08;100.00;100380.22;5077966;27;96911;-27
2024/01/01 10:14:31;;;;;;;2.17;0.20;;;;;;;8.05;100.00;100393.88;5077150;27;101165;-29
2024/01/01 10:17:10;;;;;;;1.95;0.35;;;;;;;8.17;100.00;100399.50;5096421;27;97855;-27
2024/01/01 10:19:58;;;;;;;0.00;0.00;;;;;;;8.25;100.00;100406.19;5096593;27;96623;-27
2024/01/01 10:22:31;;;;;;;1.33;0.30;;;;;;;8.32;100.00;100412.09;5077894;27;96903;-26
2024/01/01 10:25:14;;;;;;;0.00;0.00;;;;;;;8.34;100.00;100422.78;5077422;27;100815;-27
2024/01/01 10:27:43;;;;;;;14.52;1.10;;;;;;;8.39;100.00;100420.69;5095938;27;99143;-27
2024/01/01 10:30:09;;;;;;;5.13;0.35;;;;;;;8.48;100.00;100406.69;5077213;27;96870;-27
2024/01/01 10:32:35;;;;;;;1.70;0.32;;;;;;;8.49;100.00;100395.81;5077733;27;97003;-26
2024/01/01 10:35:05;;;;;;;0.13;0.13;;;;;;;8.64;100.00;100404.78;5077472;27;98957;-28
2024/01/01 10:37:33;;;;;;;0.35;0.20;;;;;;;8.56;100.00;100400.84;5077133;27;100907;-27
2024/01/01 10:40:05;;;;;;;0.57;0.20;;;;;;;8.66;100.00;100412.81;5076881;27;96699;-27
2024/01/01 10:42:33;;;;;;;0.38;0.13;;;;;;;8.63;99.70;100407.59;5077644;27;96810;-27
2024/01/01 10:45:03;;;;;;;0.70;0.32;;;;;;;8.56;100.00;100409.81;5077251;27;101045;-27
2024/01/01 10:47:29;;;;;;;1.38;0.47;;;;;;;8.50;99.58;100415.56;5076312;27;101078;-28
2024/01/01 10:50:19;;;;;;;0.93;0.57;;;;;;;8.53;100.00;100407.25;5074461;27;97231;-30
2024/01/01 10:53:00;;;;;;;0.68;0.38;;;;;;;8.53;100.00;100414.50;5074188;27;96925;-31
2024/01/01 10:55:59;;;;;;;4.03;0.52;;;;;;;8.55;100.00;100402.66;5076540;27;101217;-27
2024/01/01 10:58:39;;;;;;;3.05;0.38;;;;;;;8.98;99.06;100408.13;5095268;27;97947;-27
2024/01/01 11:01:17;;;;;;;0.20;0.10;;;;;;;9.31;95.40;100415.06;5077527;27;96725;-27
2024/01/01 11:03:47;;;;;;;1.60;0.60;;;;;;;9.64;95.28;100419.31;5077333;27;96836;-27
2024/01/01 11:06:24;;;;;;;2.05;0.70;;;;;;;9.49;94.46;100432.84;5076588;27;101038;-27
2024/01/01 11:08:50;;;;;;;2.47;0.60;;;;;;;9.23;95.33;100418.28;5095526;27;99399;-27
2024/01/01 11:11:31;;;;;;;1.85;0.30;;;;;;;9.12;96.24;100434.28;5095499;27;96670;-30
2024/01/01 11:13:58;;;;;;;0.82;0.15;;;;;;;9.30;96.29;100426.88;5091867;27;97258;-32
2024/01/01 11:16:24;;;;;;;0.93;0.63;;;;;;;9.26;95.62;100437.00;5072717;27;100820;-30
2024/01/01 11:18:50;;;;;;;1.42;0.32;;;;;;;9.11;97.58;100435.25;5072958;27;100854;-28
2024/01/01 11:21:27;;;;;;;0.60;0.25;;;;;;;8.99;98.10;100444.13;5092286;27;97135;-31
2024/01/01 11:23:53;;;;;;;0.13;0.13;;;;;;;8.89;98.35;100446.50;5073643;27;96843;-30
2024/01/01 11:26:32;;;;;;;0.45;0.32;;;;;;;8.93;99.05;100439.94;5092252;27;98354;-28